Terminal Aerodrome Forecast
Issued by NWS

Home | Current Version | Previous Version | Text Only | Print | Product List | Glossary On
Versions: 1 2 3 4 5 6 7 8 9 10 11 12 13 14 15 16 17 18 19 20 21 22 23 24 25 26 27 28 29 30
000
FTUS46 KSEW 231700
TAFHQM
TAF
KHQM 231731Z 2318/2418 19011KT P6SM SCT028 BKN050
      TEMPO 2318/2320 -SHRA BKN028 OVC050
     FM232000 22013KT P6SM VCTS SCT035CB BKN060
      TEMPO 2320/2402 22013G20KT 5SM SHRA BKN035CB OVC060
     FM240200 17006KT P6SM SCT035 BKN060
      TEMPO 2402/2406 -SHRA
     FM240600 11006KT P6SM SCT035 BKN060 BKN110
     FM241200 07008KT P6SM VCFG SCT110 BKN200=

USA.gov is the U.S. government's official web portal to all federal, state and local government web resources and services.